Aviation Digital Data Service (ADDS)

Output produced by METARs form (1259 UTC 17 August 2019)
found at http://aviationweather.gov/metar/data/
 
KSVH 171255Z AUTO 00000KT M1/4SM FG OVC002 23/23 A3002 RMK AO2 T02340229
KSVH 171235Z AUTO 00000KT M1/4SM FG OVC002 23/23 A3001 RMK AO2 T02300225
KSVH 171215Z AUTO 00000KT 1/4SM FG OVC002 23/22 A3001 RMK AO2 T02280223